Time;durP1;ratioP1;P1;durP2;ratioP2;P2;SDS_P1;SDS_P2;PMS_P1;PMS_P2;Temp;Humidity;BMP_temperature;BMP_pressure;BME280_temperature;BME280_humidity;BME280_pressure;Samples;Min_cycle;Max_cycle;Signal;HPM_P1;HPM_P2
2023/07/05 00:03:14;;;;;;;9.90;5.10;;;;;;;14.58;74.73;100471.02;219397;1265;140763;-83
2023/07/05 00:08:14;;;;;;;11.60;4.50;;;;;;;14.52;75.64;100468.82;220058;1266;139481;-83
2023/07/05 00:13:14;;;;;;;11.00;4.30;;;;;;;14.42;75.92;100453.76;219316;1266;141662;-83
2023/07/05 00:18:15;;;;;;;9.80;4.70;;;;;;;14.39;75.78;100454.32;219721;1265;139550;-83
2023/07/05 00:23:15;;;;;;;10.10;5.20;;;;;;;14.37;75.46;100457.82;219388;1266;141303;-83
2023/07/05 00:28:16;;;;;;;12.80;5.10;;;;;;;14.34;75.62;100457.58;219770;1265;98719;-82
2023/07/05 00:33:20;;;;;;;8.40;4.50;;;;;;;14.30;76.67;100451.50;219193;1266;142130;-82
2023/07/05 00:38:21;;;;;;;10.20;4.50;;;;;;;14.25;76.89;100443.62;219821;1265;138666;-83
2023/07/05 00:43:22;;;;;;;9.90;5.40;;;;;;;14.20;77.61;100443.48;219272;1265;141024;-83
2023/07/05 00:48:30;;;;;;;9.20;4.70;;;;;;;14.16;77.33;100442.74;219830;1265;138829;-83
2023/07/05 00:53:40;;;;;;;12.00;5.40;;;;;;;14.12;77.89;100444.11;219190;1268;140740;-83
2023/07/05 00:58:41;;;;;;;9.50;5.00;;;;;;;14.03;77.52;100443.41;220014;1266;106701;-83
2023/07/05 01:03:46;;;;;;;11.40;5.00;;;;;;;13.98;77.65;100440.10;219256;1266;141461;-83
2023/07/05 01:08:47;;;;;;;11.10;4.90;;;;;;;13.92;78.11;100426.61;219659;1265;139412;-82
2023/07/05 01:13:58;;;;;;;9.10;4.40;;;;;;;13.88;78.29;100426.15;219373;1266;140567;-83
2023/07/05 01:19:22;;;;;;;9.40;4.70;;;;;;;13.78;78.02;100417.16;220140;1267;141554;-82
2023/07/05 01:24:34;;;;;;;10.60;5.30;;;;;;;13.76;78.04;100421.98;219869;1265;139267;-83
2023/07/05 01:29:41;;;;;;;9.60;4.80;;;;;;;13.70;79.41;100424.60;219391;1265;142115;-83
2023/07/05 01:34:55;;;;;;;12.30;5.20;;;;;;;13.65;78.84;100428.40;219983;1265;97956;-81
2023/07/05 01:39:57;;;;;;;14.00;5.20;;;;;;;13.60;80.14;100429.35;219584;1266;141030;-83
2023/07/05 01:44:59;;;;;;;11.70;4.90;;;;;;;13.52;80.65;100426.04;219770;1266;139267;-82
2023/07/05 01:50:08;;;;;;;10.50;4.80;;;;;;;13.44;80.74;100426.28;219305;1270;141163;-83
2023/07/05 01:55:14;;;;;;;8.60;4.50;;;;;;;13.38;80.37;100425.42;219840;1265;138790;-82
2023/07/05 02:00:21;;;;;;;9.50;4.80;;;;;;;13.37;80.18;100424.71;219282;1265;141419;-82
2023/07/05 02:05:27;;;;;;;10.50;4.70;;;;;;;13.35;81.02;100425.17;219780;1265;138778;-82
2023/07/05 02:10:28;;;;;;;10.60;4.90;;;;;;;13.31;82.11;100426.52;219627;1265;141789;-83
2023/07/05 02:15:29;;;;;;;11.20;4.20;;;;;;;13.26;82.10;100425.98;222203;1265;139266;-83
2023/07/05 02:20:30;;;;;;;12.60;5.20;;;;;;;13.23;81.11;100427.09;219438;1266;141823;-82
2023/07/05 02:25:31;;;;;;;10.30;5.30;;;;;;;13.20;81.77;100427.15;220062;1266;139913;-83
2023/07/05 02:30:34;;;;;;;9.90;5.00;;;;;;;13.16;82.69;100424.31;219672;1265;141115;-83
2023/07/05 02:35:36;;;;;;;9.80;4.70;;;;;;;13.14;82.94;100424.23;220007;1268;138765;-83
2023/07/05 02:40:37;;;;;;;9.50;5.10;;;;;;;13.11;83.21;100419.65;219447;1266;141191;-83
2023/07/05 02:45:37;;;;;;;11.80;5.70;;;;;;;13.10;83.03;100413.26;219998;1265;138546;-83
2023/07/05 02:50:39;;;;;;;12.30;5.80;;;;;;;13.12;84.01;100411.84;219352;1265;144415;-83
2023/07/05 02:55:39;;;;;;;11.70;5.40;;;;;;;13.13;84.13;100402.36;219973;1268;138819;-82
2023/07/05 03:00:40;;;;;;;10.70;5.10;;;;;;;13.14;84.42;100393.92;219503;1265;140568;-83
2023/07/05 03:05:40;;;;;;;9.80;5.10;;;;;;;13.16;83.59;100394.30;220256;1265;138770;-83
2023/07/05 03:10:41;;;;;;;9.30;4.90;;;;;;;13.21;83.64;100393.76;219647;1266;141005;-84
2023/07/05 03:15:43;;;;;;;11.90;5.30;;;;;;;13.26;84.03;100396.61;220450;1266;138677;-83
2023/07/05 03:20:47;;;;;;;10.00;5.40;;;;;;;13.32;84.34;100387.91;219493;1268;142406;-83
2023/07/05 03:25:59;;;;;;;12.90;5.00;;;;;;;13.41;84.67;100385.14;220040;1265;138941;-84
2023/07/05 03:31:11;;;;;;;15.00;5.30;;;;;;;13.48;83.75;100378.17;219635;1265;141473;-84
2023/07/05 03:36:15;;;;;;;11.60;4.80;;;;;;;13.59;82.63;100373.73;220122;1266;139520;-84
2023/07/05 03:41:19;;;;;;;10.80;5.40;;;;;;;13.70;81.88;100380.11;219627;1265;140984;-83
2023/07/05 03:46:19;;;;;;;10.80;5.40;;;;;;;13.83;81.24;100376.13;220111;1268;97925;-84
2023/07/05 03:51:21;;;;;;;12.90;5.40;;;;;;;13.93;80.60;100368.17;219483;1268;140622;-84
2023/07/05 03:56:23;;;;;;;13.80;6.20;;;;;;;14.01;80.43;100371.80;219916;1265;138813;-84
2023/07/05 04:01:25;;;;;;;13.70;5.50;;;;;;;14.11;80.34;100371.14;219659;1268;141223;-84
2023/07/05 04:06:29;;;;;;;9.80;4.50;;;;;;;14.22;80.08;100371.48;220001;1265;138864;-84
2023/07/05 04:11:30;;;;;;;12.10;5.00;;;;;;;14.32;79.76;100374.84;219377;1266;140426;-84
2023/07/05 04:16:31;;;;;;;11.90;5.00;;;;;;;14.39;79.51;100371.56;220062;1266;110366;-84
2023/07/05 04:21:32;;;;;;;12.80;5.90;;;;;;;14.47;79.57;100371.05;219379;1265;141862;-84
2023/07/05 04:26:32;;;;;;;11.00;5.00;;;;;;;14.55;79.34;100372.98;220056;1265;139251;-85
2023/07/05 04:31:32;;;;;;;13.50;5.40;;;;;;;14.62;79.20;100369.06;219356;1265;140964;-85
2023/07/05 04:36:33;;;;;;;9.70;5.50;;;;;;;14.70;79.15;100370.59;220039;1265;140098;-85
2023/07/05 04:41:33;;;;;;;11.40;5.60;;;;;;;14.81;78.84;100360.46;219460;1266;140674;-84
2023/07/05 04:46:34;;;;;;;12.10;4.80;;;;;;;14.94;78.48;100359.73;220037;1266;98546;-85
2023/07/05 04:51:35;;;;;;;10.60;4.80;;;;;;;15.09;78.30;100356.53;219379;1265;141497;-84
2023/07/05 04:56:36;;;;;;;11.70;5.20;;;;;;;15.22;78.33;100349.98;220239;1265;139874;-84
2023/07/05 05:01:40;;;;;;;12.90;5.40;;;;;;;15.39;78.12;100350.26;219876;1265;142354;-85
2023/07/05 05:06:40;;;;;;;9.90;4.90;;;;;;;15.57;77.88;100349.92;220097;1266;139850;-85
2023/07/05 05:11:41;;;;;;;10.80;5.50;;;;;;;15.77;77.59;100349.85;219604;1265;141256;-84
2023/07/05 05:16:41;;;;;;;17.50;6.90;;;;;;;15.99;77.55;100352.14;219840;1266;110332;-84
2023/07/05 05:21:42;;;;;;;12.10;5.40;;;;;;;16.27;77.48;100350.75;219255;1265;140864;-85
2023/07/05 05:26:42;;;;;;;17.50;6.50;;;;;;;16.63;76.74;100349.95;219780;1269;138813;-84
2023/07/05 05:31:43;;;;;;;9.70;5.10;;;;;;;17.09;75.47;100349.70;219260;1265;141940;-82
2023/07/05 05:36:43;;;;;;;16.70;5.50;;;;;;;17.62;74.34;100354.02;219804;1266;138839;-83
2023/07/05 05:41:44;;;;;;;10.70;4.80;;;;;;;18.19;72.41;100350.34;219538;1266;141827;-83
2023/07/05 05:46:44;;;;;;;19.60;6.30;;;;;;;18.81;70.54;100350.34;220012;1265;99190;-83
2023/07/05 05:51:45;;;;;;;21.10;5.40;;;;;;;19.46;68.81;100342.48;219481;1266;140632;-84
2023/07/05 05:56:45;;;;;;;15.10;4.40;;;;;;;20.12;67.23;100334.02;219801;1266;138788;-84
2023/07/05 06:01:45;;;;;;;13.80;5.10;;;;;;;20.76;64.71;100325.05;219352;1266;141843;-83
2023/07/05 06:06:46;;;;;;;11.40;4.30;;;;;;;21.25;61.73;100321.29;219848;1266;138533;-83
2023/07/05 06:11:46;;;;;;;18.60;4.90;;;;;;;21.70;60.12;100313.52;219459;1265;141155;-82
2023/07/05 06:16:46;;;;;;;14.70;5.00;;;;;;;22.07;58.23;100303.79;220238;1268;103053;-83
2023/07/05 06:21:47;;;;;;;15.40;5.50;;;;;;;22.37;57.02;100309.83;219303;1266;140983;-84
2023/07/05 06:26:47;;;;;;;13.00;5.10;;;;;;;22.82;56.35;100301.62;220048;1265;137975;-83
2023/07/05 06:31:48;;;;;;;14.00;4.70;;;;;;;23.21;55.24;100300.20;219285;1266;140025;-87
2023/07/05 06:36:48;;;;;;;14.20;4.90;;;;;;;23.75;54.60;100293.75;219761;1266;138412;-83
2023/07/05 06:41:49;;;;;;;11.90;4.80;;;;;;;23.95;51.76;100287.72;219311;1269;141098;-84
2023/07/05 06:46:50;;;;;;;13.70;5.30;;;;;;;24.10;51.49;100288.25;219984;1266;97934;-87
2023/07/05 06:51:51;;;;;;;13.70;5.10;;;;;;;24.44;50.16;100279.01;219280;1266;141640;-85
2023/07/05 06:56:51;;;;;;;10.70;5.20;;;;;;;24.76;49.81;100270.38;220208;1265;137878;-85
2023/07/05 07:01:51;;;;;;;17.20;5.20;;;;;;;25.10;49.09;100265.77;219722;1266;141313;-83
2023/07/05 07:06:52;;;;;;;11.10;4.90;;;;;;;25.37;48.59;100268.77;220341;1266;138905;-83
2023/07/05 07:11:52;;;;;;;12.30;5.70;;;;;;;25.59;47.25;100265.46;219630;1270;140010;-84
2023/07/05 07:16:54;;;;;;;12.00;6.00;;;;;;;25.90;46.91;100260.08;220763;1266;97859;-86
2023/07/05 07:21:54;;;;;;;16.40;5.90;;;;;;;26.20;46.74;100253.20;219490;1265;141032;-85
2023/07/05 07:26:55;;;;;;;15.90;6.00;;;;;;;26.48;45.99;100241.75;220388;1266;138216;-84
2023/07/05 07:31:56;;;;;;;12.60;5.90;;;;;;;26.76;45.23;100238.45;219572;1266;139783;-85
2023/07/05 07:36:57;;;;;;;16.00;6.60;;;;;;;26.97;45.17;100232.11;220109;1266;138264;-83
2023/07/05 07:41:57;;;;;;;14.10;6.20;;;;;;;27.19;43.51;100233.08;219779;1265;140395;-85
2023/07/05 07:46:58;;;;;;;14.50;6.00;;;;;;;27.34;43.38;100228.08;220295;1268;138808;-83
2023/07/05 07:51:59;;;;;;;15.10;6.40;;;;;;;27.47;41.89;100223.52;219862;1266;140601;-83
2023/07/05 07:56:59;;;;;;;13.80;6.70;;;;;;;27.41;42.22;100216.86;220390;1268;137928;-84
2023/07/05 08:02:00;;;;;;;15.00;7.00;;;;;;;27.71;42.54;100211.44;220010;1268;141958;-84
2023/07/05 08:07:03;;;;;;;12.70;6.30;;;;;;;27.88;41.69;100211.11;220105;1266;138772;-86
2023/07/05 08:12:04;;;;;;;15.70;8.50;;;;;;;28.21;41.70;100202.80;219386;1270;141832;-84
2023/07/05 08:17:05;;;;;;;15.00;9.10;;;;;;;28.34;40.80;100198.52;220064;1266;138295;-84
2023/07/05 08:22:06;;;;;;;16.40;8.70;;;;;;;28.41;40.17;100192.77;219951;1267;140764;-84
2023/07/05 08:27:07;;;;;;;17.20;10.50;;;;;;;28.38;39.93;100195.73;219961;1266;138346;-87
2023/07/05 08:32:08;;;;;;;17.40;10.20;;;;;;;28.16;39.81;100188.98;219742;1268;140668;-83
2023/07/05 08:37:10;;;;;;;18.00;10.80;;;;;;;28.12;40.04;100185.60;220037;1266;138461;-87
2023/07/05 08:42:19;;;;;;;19.20;11.00;;;;;;;28.41;40.34;100184.64;219638;1268;140880;-86
2023/07/05 08:47:32;;;;;;;17.30;10.70;;;;;;;29.00;40.17;100181.59;220219;1267;139288;-85
2023/07/05 08:52:37;;;;;;;20.70;12.60;;;;;;;29.65;39.05;100168.92;219847;1268;140125;-85
2023/07/05 08:57:57;;;;;;;19.80;12.20;;;;;;;30.01;38.40;100157.20;219914;1270;138244;-84
2023/07/05 09:02:59;;;;;;;20.00;13.00;;;;;;;30.38;37.67;100150.87;219323;1270;140443;-87
2023/07/05 09:08:32;;;;;;;22.00;13.70;;;;;;;30.82;36.89;100152.67;220174;1265;138623;-86
2023/07/05 09:13:41;;;;;;;20.00;13.60;;;;;;;31.55;37.38;100144.96;219745;1268;141584;-88
2023/07/05 09:18:57;;;;;;;20.40;14.20;;;;;;;32.16;36.29;100139.79;219862;1269;138258;-87
2023/07/05 09:24:18;;;;;;;21.90;14.10;;;;;;;32.71;35.68;100134.67;219665;1268;138945;-85
2023/07/05 09:29:30;;;;;;;24.40;16.20;;;;;;;33.18;34.36;100133.93;220110;1268;140363;-83
2023/07/05 09:34:41;;;;;;;21.70;15.60;;;;;;;33.57;33.51;100119.00;220238;1269;99829;-85
2023/07/05 09:40:16;;;;;;;21.20;15.80;;;;;;;33.93;33.17;100108.92;219741;1269;140512;-84
2023/07/05 09:45:17;;;;;;;21.40;16.50;;;;;;;33.98;32.76;100109.20;220207;1269;138513;-86
2023/07/05 09:50:20;;;;;;;22.90;15.70;;;;;;;34.49;32.44;100096.71;219462;1265;141185;-86
2023/07/05 09:55:21;;;;;;;25.10;17.90;;;;;;;35.07;31.45;100085.48;219870;1269;138630;-85
2023/07/05 10:00:32;;;;;;;21.60;16.40;;;;;;;35.02;31.06;100081.34;219459;1266;139738;-85
2023/07/05 10:05:33;;;;;;;25.20;16.70;;;;;;;34.91;30.82;100072.17;220365;1268;138397;-88
2023/07/05 10:10:37;;;;;;;19.60;16.20;;;;;;;35.27;30.16;100067.92;219550;1268;140646;-85
2023/07/05 10:15:50;;;;;;;33.10;17.40;;;;;;;35.52;29.73;100052.38;220190;1268;139300;-85
2023/07/05 10:20:50;;;;;;;21.00;15.20;;;;;;;35.53;29.52;100055.74;219553;1267;140944;-86
2023/07/05 10:25:53;;;;;;;18.90;13.30;;;;;;;35.80;29.19;100050.70;219694;1266;139747;-86
2023/07/05 10:30:56;;;;;;;17.60;13.10;;;;;;;35.77;27.29;100044.55;219434;1268;141033;-87
2023/07/05 10:36:02;;;;;;;21.70;14.20;;;;;;;35.41;27.95;100032.16;220010;1266;138314;-83
2023/07/05 10:41:19;;;;;;;18.20;12.60;;;;;;;35.37;28.03;100024.86;219083;1265;333104;-86
2023/07/05 10:46:24;;;;;;;22.70;12.50;;;;;;;35.49;28.43;100019.77;219973;1271;103426;-87
2023/07/05 10:51:33;;;;;;;22.50;12.20;;;;;;;35.75;28.30;100010.58;219523;1268;141145;-85
2023/07/05 10:56:35;;;;;;;23.30;13.20;;;;;;;35.72;28.03;100002.23;219857;1268;138570;-86
2023/07/05 11:01:48;;;;;;;14.60;10.80;;;;;;;35.27;27.75;100004.09;219528;1266;140413;-88
2023/07/05 11:06:52;;;;;;;15.40;11.20;;;;;;;34.95;27.83;99995.38;220435;1268;138673;-87
2023/07/05 11:11:57;;;;;;;19.40;10.90;;;;;;;34.47;28.01;99984.10;219461;1269;140144;-86
2023/07/05 11:16:58;;;;;;;18.00;11.00;;;;;;;34.42;28.84;99976.48;219854;1269;138276;-83
2023/07/05 11:22:00;;;;;;;16.50;9.20;;;;;;;34.37;28.90;99974.98;219204;1269;141335;-81
2023/07/05 11:27:01;;;;;;;17.40;9.90;;;;;;;34.33;28.31;99974.70;219680;1271;138375;-86
2023/07/05 11:32:09;;;;;;;15.20;9.10;;;;;;;34.34;28.38;99962.89;219659;1265;140788;-86
2023/07/05 11:37:09;;;;;;;15.80;8.90;;;;;;;34.14;28.24;99954.52;219735;1268;138096;-86
2023/07/05 11:42:13;;;;;;;12.50;7.50;;;;;;;33.70;27.95;99956.09;219096;1266;143418;-87
2023/07/05 11:47:22;;;;;;;12.80;8.30;;;;;;;33.42;28.07;99942.59;219736;1265;138146;-87
2023/07/05 11:52:29;;;;;;;12.50;7.60;;;;;;;33.29;28.59;99931.98;219236;1267;139482;-86
2023/07/05 11:57:53;;;;;;;11.80;6.90;;;;;;;33.11;28.40;99921.77;220629;1268;138328;-85
2023/07/05 12:03:01;;;;;;;11.10;6.70;;;;;;;33.05;28.66;99910.48;219558;1272;140213;-84
2023/07/05 12:08:07;;;;;;;11.20;6.40;;;;;;;32.83;28.68;99900.02;219828;1270;137915;-85
2023/07/05 12:19:30;;;;;;;11.20;6.40;;;;;;;32.79;28.70;99873.02;219142;1269;140264;-84
2023/07/05 12:24:48;;;;;;;12.20;6.80;;;;;;;32.52;28.92;99861.41;219598;1270;138359;-86
2023/07/05 12:29:50;;;;;;;11.70;6.60;;;;;;;32.66;28.99;99857.14;219158;1269;140848;-86
2023/07/05 12:35:30;;;;;;;14.80;7.10;;;;;;;32.78;28.83;99853.60;220648;1267;97970;-86
2023/07/05 12:40:35;;;;;;;11.90;6.10;;;;;;;32.57;28.53;99853.40;219070;1270;140301;-86
2023/07/05 12:45:40;;;;;;;12.30;6.60;;;;;;;32.22;28.80;99852.52;220043;1270;138633;-89
2023/07/05 12:56:29;;;;;;;11.70;6.10;;;;;;;31.77;29.37;99857.95;220460;1268;124849;-88
2023/07/05 13:01:32;;;;;;;12.10;6.10;;;;;;;31.52;30.80;99857.05;219490;1269;141029;-87
2023/07/05 13:06:34;;;;;;;13.80;8.00;;;;;;;31.29;31.93;99860.85;220038;1270;137906;-88
2023/07/05 13:11:36;;;;;;;14.70;8.40;;;;;;;30.71;34.09;99862.79;219458;1267;140927;-90
2023/07/05 13:16:48;;;;;;;24.20;7.30;;;;;;;29.97;36.88;99889.88;220132;1266;98347;-91
2023/07/05 13:21:49;;;;;;;17.50;6.50;;;;;;;28.86;43.03;99968.32;219825;1269;139347;-92
2023/07/05 13:26:50;;;;;;;12.10;6.10;;;;;;;27.22;47.72;99959.36;220223;1267;138407;-86
2023/07/05 13:31:52;;;;;;;11.50;5.50;;;;;;;26.21;51.89;99966.15;219737;1269;140723;-86
2023/07/05 13:37:14;;;;;;;11.50;5.20;;;;;;;25.47;54.93;99970.27;220253;1269;138249;-88
2023/07/05 13:42:14;;;;;;;11.30;5.50;;;;;;;24.76;57.94;99964.65;219641;1268;141233;-88
2023/07/05 13:47:16;;;;;;;13.90;6.00;;;;;;;24.55;59.36;99989.67;219915;1270;138430;-88
2023/07/05 13:52:19;;;;;;;13.40;5.60;;;;;;;24.35;60.71;100011.80;219596;1270;139658;-89
2023/07/05 13:57:20;;;;;;;12.30;5.20;;;;;;;24.15;62.61;100015.32;220032;1267;139046;-89
2023/07/05 14:02:33;;;;;;;13.60;6.10;;;;;;;23.87;64.47;100016.82;219633;1267;141914;-90
2023/07/05 14:07:34;;;;;;;23.10;7.30;;;;;;;23.43;67.11;99988.62;220032;1267;138281;-89
2023/07/05 14:12:34;;;;;;;10.70;5.80;;;;;;;23.21;68.44;99951.61;219764;1270;139935;-91
2023/07/05 14:17:35;;;;;;;11.70;5.20;;;;;;;23.11;70.02;99930.68;220218;1267;138851;-91
2023/07/05 14:22:35;;;;;;;14.50;5.60;;;;;;;23.18;70.12;99933.20;219759;1268;140820;-91
2023/07/05 14:27:36;;;;;;;10.90;5.00;;;;;;;23.32;72.48;99919.77;220749;1267;137827;-91
2023/07/05 14:32:37;;;;;;;11.40;5.90;;;;;;;23.41;72.04;99917.94;219767;1267;141259;-91
2023/07/05 14:37:37;;;;;;;10.00;5.00;;;;;;;23.59;72.58;99923.70;219894;1267;138766;-90
2023/07/05 14:42:39;;;;;;;11.10;6.10;;;;;;;23.77;71.25;99922.32;219464;1269;140674;-89
2023/07/05 14:47:41;;;;;;;15.20;6.40;;;;;;;23.97;72.25;99920.32;219797;1269;139123;-88
2023/07/05 14:52:42;;;;;;;11.80;6.70;;;;;;;24.06;71.68;99915.10;219514;1267;140857;-90
2023/07/05 14:57:44;;;;;;;13.30;6.50;;;;;;;24.15;71.60;99910.96;220370;1265;139095;-90
2023/07/05 15:03:02;;;;;;;17.30;7.40;;;;;;;24.09;74.83;99987.84;219110;1265;140632;-92
2023/07/05 15:08:05;;;;;;;14.20;7.00;;;;;;;23.62;76.82;99990.65;220135;1267;139117;-93
2023/07/05 15:13:08;;;;;;;16.80;8.10;;;;;;;23.28;76.53;99994.16;219267;1269;140655;-93
2023/07/05 15:18:08;;;;;;;13.50;8.30;;;;;;;23.04;76.68;99992.57;220152;1268;139500;-92
2023/07/05 15:23:09;;;;;;;17.70;7.40;;;;;;;22.95;77.34;100022.34;219444;1268;140501;-91
2023/07/05 15:28:09;;;;;;;15.80;7.30;;;;;;;22.71;79.13;100048.86;220279;1265;98004;-91
2023/07/05 15:33:10;;;;;;;15.90;7.70;;;;;;;22.30;80.87;100058.40;219622;1269;141561;-92
2023/07/05 15:38:10;;;;;;;14.60;7.30;;;;;;;22.09;82.19;100058.33;220038;1265;139297;-92
2023/07/05 15:43:11;;;;;;;18.40;7.20;;;;;;;22.02;81.81;100067.16;219360;1269;141143;-92
2023/07/05 15:48:11;;;;;;;15.50;7.10;;;;;;;21.96;82.23;100072.70;219726;1269;139003;-92
2023/07/05 15:53:13;;;;;;;15.80;8.30;;;;;;;21.92;83.36;100068.95;219459;1268;141970;-94
2023/07/05 15:58:19;;;;;;;12.00;6.20;;;;;;;21.67;84.78;100042.10;219957;1266;104755;-92
2023/07/05 16:03:21;;;;;;;11.70;5.70;;;;;;;21.47;85.70;100010.41;219315;1265;141224;-95
2023/07/05 16:08:21;;;;;;;13.10;5.80;;;;;;;21.27;86.23;99991.23;219646;1266;139894;-93
2023/07/05 16:13:23;;;;;;;12.40;5.70;;;;;;;21.29;85.93;99974.13;219219;1266;141543;-93
2023/07/05 16:18:24;;;;;;;11.00;5.50;;;;;;;21.29;87.74;99939.39;219802;1269;138870;-92
2023/07/05 16:23:27;;;;;;;12.50;5.80;;;;;;;21.28;88.49;99931.36;219313;1268;140800;-91
2023/07/05 16:28:28;;;;;;;11.10;5.30;;;;;;;21.28;88.98;99930.00;219784;1266;98367;-92
2023/07/05 16:33:28;;;;;;;12.80;5.80;;;;;;;21.25;89.21;99958.74;219248;1265;140914;-91
2023/07/05 16:38:29;;;;;;;11.30;5.20;;;;;;;21.23;89.87;99961.95;219743;1265;138716;-91
2023/07/05 16:43:30;;;;;;;9.50;5.10;;;;;;;21.19;90.11;99947.80;219347;1265;140309;-90
2023/07/05 16:48:34;;;;;;;10.60;4.80;;;;;;;21.13;90.07;99952.99;219687;1265;138531;-90
2023/07/05 16:53:37;;;;;;;10.50;5.30;;;;;;;21.08;89.80;99958.89;219293;1266;140342;-91
2023/07/05 16:58:38;;;;;;;10.50;5.10;;;;;;;21.03;89.92;99955.22;220252;1268;97945;-90
2023/07/05 17:03:40;;;;;;;11.20;5.60;;;;;;;21.00;90.22;99960.30;219439;1265;140893;-88
2023/07/05 17:08:42;;;;;;;11.40;5.50;;;;;;;20.96;90.68;99966.88;220056;1269;139176;-89
2023/07/05 17:13:42;;;;;;;12.50;5.90;;;;;;;20.90;90.77;99969.25;219581;1265;141080;-90
2023/07/05 17:18:43;;;;;;;17.50;6.70;;;;;;;20.89;90.42;99959.35;219970;1270;139448;-90
2023/07/05 17:23:44;;;;;;;13.20;4.30;;;;;;;20.97;90.21;99969.88;219618;1269;141411;-89
2023/07/05 17:28:45;;;;;;;10.60;5.90;;;;;;;20.98;91.38;99967.88;220351;1266;98055;-88
2023/07/05 17:33:46;;;;;;;10.20;4.80;;;;;;;20.93;92.56;99974.17;219631;1266;140643;-89
2023/07/05 17:38:51;;;;;;;9.50;5.70;;;;;;;20.86;93.37;99978.79;220202;1265;139064;-89
2023/07/05 17:43:52;;;;;;;8.30;4.40;;;;;;;20.88;93.36;99977.77;219838;1267;139183;-89
2023/07/05 17:48:59;;;;;;;11.40;5.30;;;;;;;20.94;92.38;99988.27;219785;1265;140817;-88
2023/07/05 17:54:01;;;;;;;11.00;4.90;;;;;;;20.99;93.27;100000.70;220307;1266;138847;-89
2023/07/05 17:59:02;;;;;;;9.20;4.10;;;;;;;20.98;93.44;100006.19;219906;1268;141716;-89
2023/07/05 18:04:03;;;;;;;10.10;4.70;;;;;;;20.98;93.94;100008.36;220670;1266;97959;-89
2023/07/05 18:09:04;;;;;;;15.20;5.20;;;;;;;20.95;94.15;100000.94;219858;1269;141359;-88
2023/07/05 18:14:05;;;;;;;10.40;4.50;;;;;;;20.93;94.82;100001.80;220426;1266;139316;-88
2023/07/05 18:19:06;;;;;;;12.80;4.60;;;;;;;20.92;94.87;100009.75;219805;1266;141231;-88
2023/07/05 18:24:10;;;;;;;13.90;4.60;;;;;;;20.92;95.00;100019.92;220416;1266;139426;-88
2023/07/05 18:29:10;;;;;;;10.10;5.70;;;;;;;20.93;95.62;100027.23;219856;1266;141677;-88
2023/07/05 18:34:11;;;;;;;8.90;4.70;;;;;;;20.88;97.04;100037.31;220589;1264;97960;-86
2023/07/05 18:39:11;;;;;;;9.80;5.30;;;;;;;20.82;97.42;100047.95;219710;1265;139385;-86
2023/07/05 18:44:12;;;;;;;13.70;7.50;;;;;;;20.79;98.25;100053.08;220477;1265;139138;-87
2023/07/05 18:49:15;;;;;;;9.70;4.90;;;;;;;20.76;98.59;100047.25;219858;1266;140828;-88
2023/07/05 18:54:15;;;;;;;13.60;5.00;;;;;;;20.72;99.07;100056.66;220153;1267;139006;-87
2023/07/05 18:59:16;;;;;;;9.10;4.60;;;;;;;20.70;99.64;100059.56;219889;1265;141707;-87
2023/07/05 19:04:16;;;;;;;10.00;5.50;;;;;;;20.69;99.70;100069.27;220498;1265;97937;-87
2023/07/05 19:09:18;;;;;;;13.00;5.60;;;;;;;20.64;99.93;100082.77;219874;1266;141510;-87
2023/07/05 19:14:19;;;;;;;9.50;5.20;;;;;;;20.61;99.91;100083.14;220423;1265;139282;-88
2023/07/05 19:19:19;;;;;;;11.60;5.00;;;;;;;20.61;99.95;100093.86;219863;1265;141686;-88
2023/07/05 19:24:19;;;;;;;12.50;6.00;;;;;;;20.59;100.00;100101.73;220431;1270;140355;-88
2023/07/05 19:29:20;;;;;;;11.30;5.90;;;;;;;20.55;100.00;100106.91;219851;1266;140679;-90
2023/07/05 19:34:21;;;;;;;9.00;5.00;;;;;;;20.50;100.00;100113.48;220425;1267;99251;-88
2023/07/05 19:39:21;;;;;;;10.10;5.30;;;;;;;20.47;99.96;100124.37;219773;1268;140729;-88
2023/07/05 19:44:22;;;;;;;12.00;6.00;;;;;;;20.41;99.89;100129.76;220079;1265;138837;-88
2023/07/05 19:49:25;;;;;;;12.80;5.90;;;;;;;20.31;99.93;100136.06;219452;1265;141011;-88
2023/07/05 19:54:26;;;;;;;12.20;6.40;;;;;;;20.22;100.00;100134.15;220063;1266;140486;-88
2023/07/05 19:59:30;;;;;;;11.40;5.60;;;;;;;20.13;100.00;100142.11;219478;1265;141634;-88
2023/07/05 20:04:30;;;;;;;10.90;5.70;;;;;;;20.03;100.00;100142.73;220255;1265;97954;-89
2023/07/05 20:09:31;;;;;;;11.50;5.30;;;;;;;19.94;100.00;100150.11;219782;1265;141180;-88
2023/07/05 20:14:31;;;;;;;12.50;5.80;;;;;;;19.83;99.99;100155.79;220159;1269;138781;-90
2023/07/05 20:19:31;;;;;;;12.80;6.00;;;;;;;19.74;99.99;100159.89;220147;1269;140458;-89
2023/07/05 20:24:32;;;;;;;9.90;5.10;;;;;;;19.65;100.00;100159.78;220321;1265;138962;-92
2023/07/05 20:29:34;;;;;;;13.50;6.90;;;;;;;19.54;100.00;100171.04;220107;1267;140682;-90
2023/07/05 20:34:35;;;;;;;10.50;5.80;;;;;;;19.41;100.00;100188.96;220824;1265;98035;-92
2023/07/05 20:39:35;;;;;;;13.70;6.90;;;;;;;19.31;100.00;100201.79;220167;1266;142619;-90
2023/07/05 20:44:36;;;;;;;12.70;6.40;;;;;;;19.20;100.00;100207.64;220552;1268;138841;-88
2023/07/05 20:49:38;;;;;;;10.70;6.00;;;;;;;19.12;100.00;100217.98;219974;1268;141060;-90
2023/07/05 20:54:41;;;;;;;15.20;6.70;;;;;;;19.02;100.00;100229.48;220438;1264;139824;-90
2023/07/05 20:59:42;;;;;;;10.00;5.30;;;;;;;18.93;100.00;100235.94;220121;1266;141775;-89
2023/07/05 21:04:43;;;;;;;10.90;5.00;;;;;;;18.88;100.00;100247.38;220528;1266;98071;-90
2023/07/05 21:09:44;;;;;;;14.70;5.80;;;;;;;18.83;100.00;100257.71;219640;1265;141721;-89
2023/07/05 21:14:45;;;;;;;9.40;4.90;;;;;;;18.77;100.00;100268.05;219765;1270;139297;-89
2023/07/05 21:19:46;;;;;;;12.60;5.00;;;;;;;18.73;100.00;100279.45;219338;1265;141000;-89
2023/07/05 21:24:46;;;;;;;14.00;4.90;;;;;;;18.68;100.00;100287.48;219821;1266;139058;-89
2023/07/05 21:29:47;;;;;;;13.10;5.40;;;;;;;18.61;100.00;100300.80;219519;1266;141635;-88
2023/07/05 21:34:47;;;;;;;13.90;5.00;;;;;;;18.53;100.00;100310.52;220130;1269;97942;-89
2023/07/05 21:39:48;;;;;;;12.40;4.70;;;;;;;18.47;100.00;100316.16;219491;1269;140134;-89
2023/07/05 21:44:49;;;;;;;12.80;5.10;;;;;;;18.43;100.00;100317.77;220476;1265;138886;-90
2023/07/05 21:49:50;;;;;;;11.20;4.50;;;;;;;18.38;100.00;100324.08;220224;1265;141285;-90
2023/07/05 21:54:51;;;;;;;12.70;5.30;;;;;;;18.32;100.00;100324.92;221247;1265;139059;-89
2023/07/05 21:59:51;;;;;;;11.50;4.00;;;;;;;18.27;100.00;100326.30;220652;1266;141050;-89
2023/07/05 22:24:52;;;;;;;10.70;3.80;;;;;;;17.87;98.62;100368.84;221700;1265;139949;-86
2023/07/05 22:29:53;;;;;;;10.20;3.20;;;;;;;17.75;97.88;100370.25;220998;1265;140558;-86
2023/07/05 22:34:53;;;;;;;6.70;3.30;;;;;;;17.64;97.55;100369.04;221726;1264;110527;-86
2023/07/05 22:39:54;;;;;;;9.90;4.20;;;;;;;17.53;97.61;100373.21;220581;1265;222693;-86
2023/07/05 22:44:54;;;;;;;10.90;3.50;;;;;;;17.40;98.20;100379.39;221542;1265;138878;-87
2023/07/05 22:49:55;;;;;;;11.40;3.90;;;;;;;17.28;98.26;100384.89;220739;1265;140817;-87
2023/07/05 22:54:55;;;;;;;6.20;3.00;;;;;;;17.17;98.04;100384.62;221404;1268;139245;-87
2023/07/05 22:59:57;;;;;;;9.70;3.70;;;;;;;17.06;98.83;100387.33;221188;1266;141552;-87
2023/07/05 23:04:58;;;;;;;8.70;3.90;;;;;;;16.94;99.19;100384.42;222008;1265;97579;-87
2023/07/05 23:09:58;;;;;;;9.70;4.00;;;;;;;16.82;98.56;100391.91;221170;1266;141198;-87
2023/07/05 23:14:59;;;;;;;8.70;3.70;;;;;;;16.73;98.10;100392.76;221813;1265;138500;-87
2023/07/05 23:20:00;;;;;;;8.00;3.30;;;;;;;16.65;98.50;100389.00;221064;1265;140907;-87